Time;durP1;ratioP1;P1;durP2;ratioP2;P2;SDS_P1;SDS_P2;PMS_P1;PMS_P2;Temp;Humidity;BMP_temperature;BMP_pressure;BME280_temperature;BME280_humidity;BME280_pressure;Samples;Min_cycle;Max_cycle;Signal;HPM_P1;HPM_P2
2022/02/08 00:01:23;;;;;;;8.47;3.10;;;;;;;;;;5071641;28;21081;-73
2022/02/08 00:03:50;;;;;;;3.47;1.87;;;;;;;;;;5072202;28;20457;-73
2022/02/08 00:09:02;;;;;;;3.77;2.00;;;;;;;;;;5071292;28;20438;-74
2022/02/08 00:11:30;;;;;;;6.53;2.07;;;;;;;;;;5071789;28;20442;-73
2022/02/08 00:13:57;;;;;;;3.77;2.00;;;;;;;;;;5072290;28;20472;-73
2022/02/08 00:16:25;;;;;;;3.83;1.90;;;;;;;;;;5071635;28;20511;-73
2022/02/08 00:18:52;;;;;;;10.73;2.37;;;;;;;;;;5071477;28;20552;-73
2022/02/08 00:21:19;;;;;;;6.97;2.40;;;;;;;;;;5071781;28;20454;-73
2022/02/08 00:23:46;;;;;;;2.43;2.20;;;;;;;;;;5072004;28;20470;-73
2022/02/08 00:26:13;;;;;;;5.63;1.80;;;;;;;;;;5072028;28;20468;-73
2022/02/08 00:28:42;;;;;;;3.37;2.30;;;;;;;;;;5071366;28;20446;-73
2022/02/08 00:31:09;;;;;;;6.30;2.80;;;;;;;;;;5070926;28;20445;-73
2022/02/08 00:33:36;;;;;;;3.40;1.63;;;;;;;;;;5071302;28;20446;-72
2022/02/08 00:36:04;;;;;;;4.20;2.10;;;;;;;;;;5071240;28;20445;-72
2022/02/08 00:38:33;;;;;;;4.20;1.97;;;;;;;;;;5071308;28;20824;-73
2022/02/08 00:41:01;;;;;;;6.87;1.87;;;;;;;;;;5071978;28;20461;-74
2022/02/08 00:43:34;;;;;;;3.63;1.67;;;;;;;;;;5070812;28;20454;-73
2022/02/08 00:46:08;;;;;;;1.70;1.50;;;;;;;;;;5076002;28;20540;-73
2022/02/08 00:48:40;;;;;;;5.73;2.00;;;;;;;;;;5082608;28;20448;-73
2022/02/08 00:51:08;;;;;;;6.00;2.37;;;;;;;;;;5078970;28;20487;-72
2022/02/08 00:53:35;;;;;;;6.27;2.10;;;;;;;;;;5072498;28;20453;-73
2022/02/08 00:56:02;;;;;;;3.03;1.83;;;;;;;;;;5071653;28;20537;-73
2022/02/08 00:58:29;;;;;;;3.90;1.90;;;;;;;;;;5070074;28;20849;-72
2022/02/08 01:00:57;;;;;;;5.50;2.07;;;;;;;;;;5071204;28;20450;-73
2022/02/08 01:03:26;;;;;;;11.80;1.80;;;;;;;;;;5071152;28;20782;-73
2022/02/08 01:06:03;;;;;;;3.97;2.10;;;;;;;;;;5071072;28;20522;-73
2022/02/08 01:08:32;;;;;;;4.70;1.80;;;;;;;;;;5070751;28;20455;-72
2022/02/08 01:11:00;;;;;;;3.53;2.10;;;;;;;;;;5071207;28;20448;-73
2022/02/08 01:13:27;;;;;;;2.93;1.80;;;;;;;;;;5070655;28;20449;-73
2022/02/08 01:15:55;;;;;;;8.03;2.07;;;;;;;;;;5071159;28;20465;-73
2022/02/08 01:18:23;;;;;;;4.33;1.63;;;;;;;;;;5070562;28;20547;-73
2022/02/08 01:20:52;;;;;;;4.90;2.00;;;;;;;;;;5070635;28;20457;-73
2022/02/08 01:23:19;;;;;;;4.47;1.57;;;;;;;;;;5069465;28;20448;-72
2022/02/08 01:25:50;;;;;;;5.57;1.90;;;;;;;;;;5070987;28;20470;-72
2022/02/08 01:28:25;;;;;;;5.63;1.90;;;;;;;;;;5065653;28;20499;-73
2022/02/08 01:31:01;;;;;;;4.27;1.93;;;;;;;;;;5059633;28;20458;-73
2022/02/08 01:39:10;;;;;;;3.50;2.03;;;;;;;;;;5058826;28;20844;-74
2022/02/08 01:41:54;;;;;;;7.40;2.27;;;;;;;;;;5070650;28;20481;-73
2022/02/08 01:44:29;;;;;;;3.00;1.80;;;;;;;;;;5069760;28;20456;-73
2022/02/08 01:47:10;;;;;;;9.93;2.00;;;;;;;;;;5067337;28;20453;-73
2022/02/08 01:49:49;;;;;;;2.90;1.33;;;;;;;;;;5069441;28;20477;-73
2022/02/08 01:52:19;;;;;;;4.53;1.70;;;;;;;;;;5070280;28;20473;-74
2022/02/08 01:54:47;;;;;;;3.47;1.93;;;;;;;;;;5070919;28;20818;-73
2022/02/08 01:57:14;;;;;;;3.50;2.27;;;;;;;;;;5069551;28;20564;-72
2022/02/08 01:59:41;;;;;;;7.93;1.70;;;;;;;;;;5069813;28;21037;-73
2022/02/08 02:02:08;;;;;;;2.60;1.20;;;;;;;;;;5070016;28;20454;-72
2022/02/08 02:04:35;;;;;;;3.03;1.67;;;;;;;;;;5070122;28;20459;-73
2022/02/08 02:07:03;;;;;;;4.37;1.93;;;;;;;;;;5070196;28;20528;-73
2022/02/08 02:09:31;;;;;;;4.13;1.50;;;;;;;;;;5069468;28;20804;-73
2022/02/08 02:11:58;;;;;;;7.50;1.80;;;;;;;;;;5070626;28;20511;-73
2022/02/08 02:14:26;;;;;;;4.00;1.43;;;;;;;;;;5069399;28;20447;-73
2022/02/08 02:16:57;;;;;;;4.03;1.80;;;;;;;;;;5070540;28;20488;-73
2022/02/08 02:19:27;;;;;;;8.57;2.23;;;;;;;;;;5068637;28;20491;-73
2022/02/08 02:21:54;;;;;;;5.23;1.40;;;;;;;;;;5070445;28;20482;-72
2022/02/08 02:24:23;;;;;;;1.83;1.60;;;;;;;;;;5069404;28;20452;-73
2022/02/08 02:26:50;;;;;;;6.63;1.83;;;;;;;;;;5069917;28;20481;-73
2022/02/08 02:29:20;;;;;;;3.73;1.83;;;;;;;;;;5068974;28;20445;-73
2022/02/08 02:31:47;;;;;;;3.40;1.70;;;;;;;;;;5069598;28;20457;-73
2022/02/08 02:34:16;;;;;;;4.10;1.37;;;;;;;;;;5069544;28;20457;-73
2022/02/08 02:36:43;;;;;;;7.67;2.47;;;;;;;;;;5070396;28;20528;-72
2022/02/08 02:39:10;;;;;;;5.13;2.37;;;;;;;;;;5068774;28;20449;-72
2022/02/08 02:41:39;;;;;;;5.67;1.70;;;;;;;;;;5067353;28;20453;-73
2022/02/08 02:44:08;;;;;;;3.03;1.77;;;;;;;;;;5068883;28;21040;-71
2022/02/08 02:46:35;;;;;;;6.73;2.00;;;;;;;;;;5070032;28;20564;-73
2022/02/08 02:49:02;;;;;;;2.83;1.60;;;;;;;;;;5069508;28;20452;-73
2022/02/08 02:51:29;;;;;;;4.40;1.63;;;;;;;;;;5069367;28;20508;-73
2022/02/08 02:53:57;;;;;;;2.50;1.80;;;;;;;;;;5071201;28;20433;-73
2022/02/08 02:56:24;;;;;;;5.73;1.20;;;;;;;;;;5072741;28;21078;-73
2022/02/08 02:58:59;;;;;;;3.77;2.03;;;;;;;;;;5072927;28;20563;-73
2022/02/08 03:01:32;;;;;;;6.47;1.70;;;;;;;;;;5071906;28;20499;-73
2022/02/08 03:04:10;;;;;;;11.70;1.70;;;;;;;;;;5073358;28;20854;-72
2022/02/08 03:17:59;;;;;;;5.40;1.83;;;;;;;;;;5072834;28;20566;-72
2022/02/08 03:20:26;;;;;;;5.53;1.70;;;;;;;;;;5072030;28;20454;-72
2022/02/08 03:22:53;;;;;;;3.13;1.53;;;;;;;;;;5073731;28;20478;-72
2022/02/08 03:25:20;;;;;;;2.73;1.30;;;;;;;;;;5072474;28;20457;-72
2022/02/08 03:27:48;;;;;;;3.77;1.73;;;;;;;;;;5078506;28;20534;-74
2022/02/08 03:30:16;;;;;;;3.87;1.43;;;;;;;;;;5073012;28;20525;-73
2022/02/08 03:32:44;;;;;;;2.73;1.40;;;;;;;;;;5083286;28;20446;-71
2022/02/08 03:35:12;;;;;;;5.40;1.40;;;;;;;;;;5078857;28;20449;-73
2022/02/08 03:37:39;;;;;;;4.83;1.80;;;;;;;;;;5073572;28;20481;-72
2022/02/08 03:40:12;;;;;;;5.90;2.00;;;;;;;;;;5071813;28;20528;-70
2022/02/08 03:42:56;;;;;;;5.80;1.90;;;;;;;;;;5073050;28;20453;-73
2022/02/08 03:45:25;;;;;;;10.47;2.00;;;;;;;;;;5066549;28;20948;-72
2022/02/08 03:47:52;;;;;;;5.90;2.17;;;;;;;;;;5073095;28;20473;-73
2022/02/08 03:50:19;;;;;;;3.10;1.60;;;;;;;;;;5070848;28;20509;-73
2022/02/08 03:52:46;;;;;;;7.60;1.60;;;;;;;;;;5072441;28;20464;-73
2022/02/08 03:55:13;;;;;;;4.00;1.63;;;;;;;;;;5071239;28;20455;-72
2022/02/08 03:57:41;;;;;;;6.00;1.90;;;;;;;;;;5072515;28;20513;-73
2022/02/08 04:00:09;;;;;;;2.60;1.03;;;;;;;;;;5071767;28;20446;-73
2022/02/08 04:02:41;;;;;;;5.53;1.50;;;;;;;;;;5072826;28;20462;-73
2022/02/08 04:05:16;;;;;;;2.03;1.30;;;;;;;;;;5072140;28;20479;-73
2022/02/08 04:07:47;;;;;;;6.70;1.60;;;;;;;;;;5072230;28;20445;-73
2022/02/08 04:10:20;;;;;;;5.73;1.57;;;;;;;;;;5071286;28;20818;-73
2022/02/08 04:12:56;;;;;;;4.03;1.50;;;;;;;;;;5059058;28;20450;-74
2022/02/08 04:15:37;;;;;;;4.60;1.30;;;;;;;;;;5071559;28;21131;-73
2022/02/08 04:18:35;;;;;;;6.90;2.07;;;;;;;;;;5072114;28;20515;-71
2022/02/08 04:35:07;;;;;;;2.83;2.23;;;;;;;;;;5064462;28;20422;-73
2022/02/08 04:40:40;;;;;;;15.73;2.47;;;;;;;;;;5070830;28;20429;-75
2022/02/08 04:43:18;;;;;;;2.17;1.63;;;;;;;;;;5071097;28;20456;-71
2022/02/08 04:45:51;;;;;;;3.67;1.80;;;;;;;;;;5071834;28;20444;-71
2022/02/08 04:48:40;;;;;;;2.00;1.53;;;;;;;;;;5070577;28;20536;-71
2022/02/08 04:51:17;;;;;;;2.60;1.47;;;;;;;;;;5071002;28;20481;-71
2022/02/08 04:53:50;;;;;;;3.47;1.60;;;;;;;;;;5071027;28;20434;-78
2022/02/08 04:56:26;;;;;;;4.23;1.50;;;;;;;;;;5071186;28;20520;-75
2022/02/08 04:59:12;;;;;;;4.00;1.80;;;;;;;;;;5071433;28;20480;-74
2022/02/08 05:01:54;;;;;;;8.40;1.70;;;;;;;;;;5060059;28;20441;-74
2022/02/08 05:27:03;;;;;;;4.60;1.70;;;;;;;;;;5069506;28;20587;-72
2022/02/08 05:34:05;;;;;;;4.83;2.50;;;;;;;;;;5071272;28;20942;-72
2022/02/08 05:35:29;;;;;;;6.30;1.60;;;;;;;;;;5070062;28;20564;-74
2022/02/08 05:41:35;;;;;;;9.07;1.57;;;;;;;;;;5060472;28;20793;-75
2022/02/08 05:44:09;;;;;;;2.07;1.60;;;;;;;;;;5065475;28;20925;-75
2022/02/08 05:46:50;;;;;;;4.50;1.77;;;;;;;;;;5070699;28;20456;-75
2022/02/08 05:49:25;;;;;;;4.63;1.97;;;;;;;;;;5069971;28;20449;-74
2022/02/08 05:52:21;;;;;;;3.87;1.77;;;;;;;;;;5071046;28;20432;-74
2022/02/08 05:54:47;;;;;;;4.90;1.53;;;;;;;;;;5070410;28;20456;-74
2022/02/08 05:57:17;;;;;;;4.63;2.10;;;;;;;;;;5069420;28;20449;-74
2022/02/08 05:59:45;;;;;;;4.60;1.30;;;;;;;;;;5070963;28;20873;-75
2022/02/08 06:02:12;;;;;;;4.80;1.47;;;;;;;;;;5070332;28;20456;-74
2022/02/08 06:04:40;;;;;;;10.30;1.90;;;;;;;;;;5070925;28;20453;-75
2022/02/08 06:07:07;;;;;;;3.63;1.70;;;;;;;;;;5069798;28;20453;-70
2022/02/08 06:09:34;;;;;;;4.53;1.50;;;;;;;;;;5070571;28;20479;-74
2022/02/08 06:12:01;;;;;;;7.80;2.33;;;;;;;;;;5070919;28;20449;-75
2022/02/08 06:14:31;;;;;;;7.70;1.90;;;;;;;;;;5073719;28;20445;-75
2022/02/08 06:16:58;;;;;;;6.33;1.87;;;;;;;;;;5081250;28;20449;-75
2022/02/08 06:19:25;;;;;;;3.50;1.50;;;;;;;;;;5083366;28;20503;-76
2022/02/08 06:21:52;;;;;;;2.97;1.20;;;;;;;;;;5072368;28;20453;-75
2022/02/08 06:24:20;;;;;;;9.60;2.37;;;;;;;;;;5070485;28;20808;-75
2022/02/08 06:26:47;;;;;;;4.33;1.80;;;;;;;;;;5070109;28;20540;-75
2022/02/08 06:29:19;;;;;;;6.90;2.30;;;;;;;;;;5073983;28;20472;-74
2022/02/08 06:31:47;;;;;;;3.00;1.33;;;;;;;;;;5074364;28;20446;-75
2022/02/08 06:34:19;;;;;;;3.37;1.87;;;;;;;;;;5073534;28;20908;-74
2022/02/08 06:36:46;;;;;;;4.80;1.40;;;;;;;;;;5074722;28;20437;-75
2022/02/08 06:39:18;;;;;;;9.30;1.80;;;;;;;;;;5074440;28;20488;-73
2022/02/08 06:41:45;;;;;;;3.00;1.93;;;;;;;;;;5074446;28;20457;-75
2022/02/08 06:44:12;;;;;;;4.70;3.20;;;;;;;;;;5073680;28;20487;-74
2022/02/08 06:46:39;;;;;;;3.30;2.17;;;;;;;;;;5073701;28;20953;-74
2022/02/08 06:49:08;;;;;;;11.67;2.77;;;;;;;;;;5073608;28;20455;-70
2022/02/08 06:51:35;;;;;;;3.50;1.90;;;;;;;;;;5074133;28;20476;-74
2022/02/08 06:54:02;;;;;;;4.37;2.00;;;;;;;;;;5073731;28;20452;-76
2022/02/08 06:56:29;;;;;;;2.57;1.70;;;;;;;;;;5073375;28;20455;-75
2022/02/08 06:59:04;;;;;;;8.53;2.73;;;;;;;;;;5074071;28;20919;-75
2022/02/08 07:01:33;;;;;;;11.23;2.80;;;;;;;;;;5074046;28;20497;-75
2022/02/08 07:04:00;;;;;;;6.90;2.40;;;;;;;;;;5073909;28;20449;-74
2022/02/08 07:06:29;;;;;;;3.50;1.50;;;;;;;;;;5073089;28;20453;-74
2022/02/08 07:08:56;;;;;;;2.30;1.23;;;;;;;;;;5073270;28;20521;-74
2022/02/08 07:11:25;;;;;;;10.40;2.60;;;;;;;;;;5072744;28;21020;-74
2022/02/08 07:13:53;;;;;;;6.37;1.93;;;;;;;;;;5073576;28;20442;-75
2022/02/08 07:16:21;;;;;;;8.90;1.67;;;;;;;;;;5072658;28;20481;-74
2022/02/08 07:18:48;;;;;;;9.63;2.47;;;;;;;;;;5073470;28;20524;-74
2022/02/08 07:21:15;;;;;;;8.57;1.90;;;;;;;;;;5072747;28;20929;-74
2022/02/08 07:23:44;;;;;;;8.03;3.07;;;;;;;;;;5073242;28;20445;-73
2022/02/08 07:26:11;;;;;;;3.27;2.00;;;;;;;;;;5072431;28;20449;-75
2022/02/08 07:28:42;;;;;;;3.97;1.80;;;;;;;;;;5073412;28;20453;-74
2022/02/08 07:31:14;;;;;;;2.83;1.50;;;;;;;;;;5072716;28;20448;-74
2022/02/08 07:33:48;;;;;;;11.17;2.67;;;;;;;;;;5073636;28;20537;-75
2022/02/08 07:36:24;;;;;;;6.17;1.73;;;;;;;;;;5072553;28;20437;-75
2022/02/08 07:38:53;;;;;;;6.50;1.70;;;;;;;;;;5072962;28;20476;-75
2022/02/08 07:41:37;;;;;;;3.77;1.83;;;;;;;;;;5072445;28;20511;-75
2022/02/08 07:44:05;;;;;;;6.63;1.77;;;;;;;;;;5072574;28;20441;-71
2022/02/08 07:46:32;;;;;;;6.10;2.20;;;;;;;;;;5073278;28;20452;-75
2022/02/08 07:49:01;;;;;;;8.13;2.30;;;;;;;;;;5073445;28;20540;-75
2022/02/08 07:51:28;;;;;;;3.73;1.83;;;;;;;;;;5072455;28;20477;-75
2022/02/08 07:53:57;;;;;;;5.20;1.67;;;;;;;;;;5072569;28;20481;-75
2022/02/08 07:56:24;;;;;;;4.90;2.10;;;;;;;;;;5071538;28;20444;-74
2022/02/08 07:58:51;;;;;;;5.63;1.70;;;;;;;;;;5072864;28;20485;-75
2022/02/08 08:01:18;;;;;;;5.40;2.50;;;;;;;;;;5072117;28;20460;-75
2022/02/08 08:03:45;;;;;;;7.93;2.37;;;;;;;;;;5072851;28;20450;-75
2022/02/08 08:06:14;;;;;;;4.50;2.13;;;;;;;;;;5071717;28;20453;-75
2022/02/08 08:08:41;;;;;;;5.40;1.77;;;;;;;;;;5072680;28;20449;-75
2022/02/08 08:11:14;;;;;;;4.77;2.07;;;;;;;;;;5071559;28;20537;-74
2022/02/08 08:13:47;;;;;;;5.33;1.57;;;;;;;;;;5072890;28;20849;-75
2022/02/08 08:16:23;;;;;;;4.40;1.80;;;;;;;;;;5071554;28;20441;-74
2022/02/08 08:19:03;;;;;;;11.17;1.60;;;;;;;;;;5072084;28;20568;-75
2022/02/08 08:21:31;;;;;;;1.80;1.57;;;;;;;;;;5072199;28;20948;-75
2022/02/08 08:23:58;;;;;;;2.50;1.43;;;;;;;;;;5072552;28;20814;-75
2022/02/08 08:26:27;;;;;;;5.03;1.80;;;;;;;;;;5071348;28;20450;-74
2022/02/08 08:28:54;;;;;;;4.77;2.17;;;;;;;;;;5072153;28;20456;-75
2022/02/08 08:31:21;;;;;;;5.73;1.73;;;;;;;;;;5071581;28;20786;-74
2022/02/08 08:33:48;;;;;;;7.37;1.60;;;;;;;;;;5072194;28;20450;-74
2022/02/08 08:36:18;;;;;;;5.67;1.33;;;;;;;;;;5071057;28;20507;-74
2022/02/08 08:38:46;;;;;;;9.60;2.40;;;;;;;;;;5058609;28;20481;-74
2022/02/08 08:41:25;;;;;;;6.20;2.53;;;;;;;;;;5071210;28;20528;-74
2022/02/08 08:49:31;;;;;;;11.13;2.27;;;;;;;;;;5070394;28;20577;-74
2022/02/08 08:51:59;;;;;;;3.33;1.73;;;;;;;;;;5071124;28;20448;-73
2022/02/08 08:54:26;;;;;;;2.50;1.60;;;;;;;;;;5070781;28;20998;-74
2022/02/08 08:56:53;;;;;;;8.60;2.10;;;;;;;;;;5071138;28;20964;-74
2022/02/08 08:59:22;;;;;;;6.30;1.67;;;;;;;;;;5071638;28;20512;-74
2022/02/08 09:01:50;;;;;;;4.33;2.07;;;;;;;;;;5078574;28;20498;-74
2022/02/08 09:04:18;;;;;;;6.70;2.80;;;;;;;;;;5085226;28;20481;-73
2022/02/08 09:06:48;;;;;;;5.60;2.00;;;;;;;;;;5080379;28;20472;-74
2022/02/08 09:09:18;;;;;;;5.37;1.70;;;;;;;;;;5073212;28;20450;-73
2022/02/08 09:12:06;;;;;;;5.40;2.03;;;;;;;;;;5072541;28;20886;-74
2022/02/08 09:14:55;;;;;;;6.40;1.90;;;;;;;;;;5071635;28;20455;-73
2022/02/08 09:28:38;;;;;;;8.60;1.80;;;;;;;;;;5059563;28;20437;-74
2022/02/08 09:31:10;;;;;;;3.53;1.20;;;;;;;;;;5070574;28;20449;-71
2022/02/08 09:33:37;;;;;;;5.73;2.90;;;;;;;;;;5071236;28;20437;-74
2022/02/08 09:36:04;;;;;;;5.70;1.50;;;;;;;;;;5070591;28;20445;-70
2022/02/08 09:38:34;;;;;;;4.23;1.80;;;;;;;;;;5070974;28;20450;-75
2022/02/08 09:41:01;;;;;;;3.20;1.40;;;;;;;;;;5070687;28;20495;-75
2022/02/08 09:43:30;;;;;;;4.20;1.80;;;;;;;;;;5070207;28;20970;-74
2022/02/08 09:46:00;;;;;;;4.00;1.53;;;;;;;;;;5070908;28;20441;-74
2022/02/08 09:48:37;;;;;;;2.63;1.27;;;;;;;;;;5070509;28;20461;-75
2022/02/08 09:51:04;;;;;;;7.37;2.13;;;;;;;;;;5071365;28;20489;-70
2022/02/08 09:53:33;;;;;;;3.27;1.43;;;;;;;;;;5071107;28;20450;-75
2022/02/08 09:56:01;;;;;;;4.57;1.57;;;;;;;;;;5070599;28;20449;-75
2022/02/08 09:58:29;;;;;;;5.03;1.83;;;;;;;;;;5070875;28;20450;-74
2022/02/08 10:01:04;;;;;;;4.70;1.43;;;;;;;;;;5070660;28;21575;-74
2022/02/08 10:03:32;;;;;;;4.77;1.77;;;;;;;;;;5070416;28;20520;-74
2022/02/08 10:05:59;;;;;;;5.60;2.27;;;;;;;;;;5070436;28;20473;-75
2022/02/08 10:08:27;;;;;;;6.93;1.83;;;;;;;;;;5070065;28;20469;-74
2022/02/08 10:10:54;;;;;;;3.70;1.57;;;;;;;;;;5070543;28;20446;-74
2022/02/08 10:21:48;;;;;;;3.07;1.73;;;;;;;;;;5070823;28;20417;-74
2022/02/08 10:24:16;;;;;;;4.10;1.77;;;;;;;;;;5069409;28;20450;-74
2022/02/08 10:26:56;;;;;;;1.83;1.07;;;;;;;;;;5070173;28;20532;-73
2022/02/08 10:29:27;;;;;;;4.47;1.30;;;;;;;;;;5069653;28;21251;-75
2022/02/08 10:32:15;;;;;;;3.40;1.40;;;;;;;;;;5070934;28;20848;-74
2022/02/08 10:37:41;;;;;;;4.43;1.30;;;;;;;;;;5070783;28;20432;-74
2022/02/08 10:40:09;;;;;;;6.50;1.40;;;;;;;;;;5069992;28;20473;-74
2022/02/08 10:42:37;;;;;;;2.33;1.37;;;;;;;;;;5070506;28;20445;-74
2022/02/08 10:45:06;;;;;;;2.80;1.10;;;;;;;;;;5069626;28;20941;-69
2022/02/08 10:47:33;;;;;;;1.93;1.17;;;;;;;;;;5070552;28;20449;-73
2022/02/08 10:50:02;;;;;;;2.40;1.27;;;;;;;;;;5069812;28;20892;-73
2022/02/08 10:52:30;;;;;;;2.97;1.50;;;;;;;;;;5069671;28;20445;-73
2022/02/08 10:55:02;;;;;;;6.53;1.90;;;;;;;;;;5056496;28;20446;-73
2022/02/08 10:57:41;;;;;;;5.37;1.23;;;;;;;;;;5070151;28;20449;-73
2022/02/08 11:00:09;;;;;;;7.53;1.53;;;;;;;;;;5069709;28;20477;-73
2022/02/08 11:02:42;;;;;;;6.90;1.50;;;;;;;;;;5069884;28;20969;-73
2022/02/08 11:05:21;;;;;;;5.10;1.70;;;;;;;;;;5069218;28;20457;-73
2022/02/08 11:08:06;;;;;;;1.80;0.93;;;;;;;;;;5070017;28;20446;-73
2022/02/08 11:10:55;;;;;;;6.93;1.63;;;;;;;;;;5070275;28;20441;-73
2022/02/08 11:13:37;;;;;;;2.10;1.00;;;;;;;;;;5069093;28;20938;-73
2022/02/08 11:16:14;;;;;;;3.87;1.73;;;;;;;;;;5059995;28;20460;-73
2022/02/08 11:19:01;;;;;;;2.80;1.23;;;;;;;;;;5074274;28;20437;-74
2022/02/08 11:21:41;;;;;;;3.30;1.70;;;;;;;;;;5073954;28;20527;-73
2022/02/08 11:24:23;;;;;;;4.10;1.47;;;;;;;;;;5060469;28;20444;-73
2022/02/08 11:26:55;;;;;;;2.70;1.33;;;;;;;;;;5072819;28;20448;-74
2022/02/08 11:29:27;;;;;;;3.00;1.30;;;;;;;;;;5072778;28;20440;-73
2022/02/08 11:32:00;;;;;;;4.50;2.03;;;;;;;;;;5073333;28;20453;-74
2022/02/08 11:41:12;;;;;;;3.67;1.20;;;;;;;;;;5072831;28;20560;-73
2022/02/08 11:43:35;;;;;;;5.77;1.40;;;;;;;;;;5072065;28;20444;-73
2022/02/08 11:46:16;;;;;;;1.80;1.07;;;;;;;;;;5073195;28;20437;-74
2022/02/08 12:00:10;;;;;;;1.83;1.73;;;;;;;;;;5041980;28;20965;-74
2022/02/08 12:05:40;;;;;;;2.07;1.33;;;;;;;;;;5061271;28;20772;-74
2022/02/08 12:08:13;;;;;;;2.63;0.87;;;;;;;;;;5072475;28;20441;-70
2022/02/08 12:10:47;;;;;;;1.40;1.13;;;;;;;;;;5072725;28;20535;-74
2022/02/08 12:13:43;;;;;;;2.20;0.87;;;;;;;;;;5071888;28;20489;-73
2022/02/08 12:33:04;;;;;;;3.93;1.37;;;;;;;;;;5071650;28;20433;-74
2022/02/08 12:35:57;;;;;;;1.37;0.80;;;;;;;;;;5071581;28;20433;-74
2022/02/08 12:55:32;;;;;;;2.00;0.70;;;;;;;;;;5070457;28;20416;-70
2022/02/08 13:00:52;;;;;;;5.97;1.97;;;;;;;;;;5062607;28;20826;-74
2022/02/08 13:03:41;;;;;;;7.80;1.03;;;;;;;;;;5070528;28;20441;-73
2022/02/08 13:06:36;;;;;;;2.00;0.80;;;;;;;;;;5070186;28;20817;-73
2022/02/08 13:24:45;;;;;;;2.40;0.73;;;;;;;;;;5070613;28;20876;-73
2022/02/08 14:01:49;;;;;;;3.80;1.83;;;;;;;;;;5052558;28;20993;-73
2022/02/08 14:07:19;;;;;;;4.90;1.10;;;;;;;;;;5027497;28;20431;-72
2022/02/08 14:09:58;;;;;;;1.67;0.80;;;;;;;;;;5049663;28;20457;-73
2022/02/08 14:15:32;;;;;;;3.10;0.80;;;;;;;;;;5070071;28;20426;-73
2022/02/08 14:18:13;;;;;;;2.43;1.40;;;;;;;;;;5070976;28;20895;-73
2022/02/08 14:21:00;;;;;;;2.13;0.90;;;;;;;;;;5070794;28;20579;-74
2022/02/08 14:32:01;;;;;;;2.20;0.93;;;;;;;;;;5071595;28;20430;-73
2022/02/08 14:35:07;;;;;;;2.63;0.90;;;;;;;;;;5079305;28;20445;-73
2022/02/08 14:49:07;;;;;;;5.40;1.50;;;;;;;;;;5070669;28;20416;-73
2022/02/08 15:05:40;;;;;;;1.70;1.20;;;;;;;;;;5072549;28;20436;-73
2022/02/08 15:08:17;;;;;;;2.20;1.00;;;;;;;;;;5073243;28;20525;-70
2022/02/08 15:10:48;;;;;;;2.67;1.30;;;;;;;;;;5073263;28;20449;-73
2022/02/08 15:13:20;;;;;;;2.20;0.90;;;;;;;;;;5073123;28;20452;-73
2022/02/08 15:16:02;;;;;;;6.43;1.00;;;;;;;;;;5073011;28;20942;-73
2022/02/08 15:18:32;;;;;;;2.77;0.87;;;;;;;;;;5073131;28;20445;-73
2022/02/08 15:20:59;;;;;;;1.70;1.13;;;;;;;;;;5073696;28;20523;-73
2022/02/08 15:23:27;;;;;;;2.60;1.20;;;;;;;;;;5072341;28;20495;-73
2022/02/08 15:25:56;;;;;;;3.57;0.80;;;;;;;;;;5072520;28;20913;-73
2022/02/08 15:28:26;;;;;;;7.27;1.07;;;;;;;;;;5072556;28;20453;-73
2022/02/08 15:30:54;;;;;;;2.20;0.97;;;;;;;;;;5073190;28;20457;-73
2022/02/08 15:33:21;;;;;;;3.83;1.33;;;;;;;;;;5072669;28;20452;-73
2022/02/08 15:35:49;;;;;;;1.03;0.80;;;;;;;;;;5073445;28;20548;-73
2022/02/08 15:38:16;;;;;;;1.70;0.90;;;;;;;;;;5072605;28;20494;-73
2022/02/08 15:40:45;;;;;;;3.27;1.17;;;;;;;;;;5073346;28;20589;-72
2022/02/08 15:43:13;;;;;;;1.43;1.00;;;;;;;;;;5072412;28;20544;-73
2022/02/08 15:45:48;;;;;;;3.00;0.90;;;;;;;;;;5073000;28;20477;-73
2022/02/08 15:48:20;;;;;;;3.37;1.27;;;;;;;;;;5072447;28;20522;-73
2022/02/08 15:50:55;;;;;;;1.97;1.07;;;;;;;;;;5072874;28;20491;-73
2022/02/08 15:53:32;;;;;;;1.90;0.80;;;;;;;;;;5072216;28;20440;-73
2022/02/08 16:07:23;;;;;;;1.50;0.80;;;;;;;;;;5128198;28;20426;-72
2022/02/08 16:09:56;;;;;;;3.60;1.20;;;;;;;;;;5128733;28;20499;-73
2022/02/08 16:12:35;;;;;;;1.47;0.80;;;;;;;;;;5127639;28;20499;-73
2022/02/08 16:15:23;;;;;;;1.73;1.10;;;;;;;;;;5128327;28;20449;-72
2022/02/08 16:18:05;;;;;;;5.90;1.60;;;;;;;;;;5128880;28;20553;-72
2022/02/08 16:20:44;;;;;;;1.53;0.60;;;;;;;;;;5129135;28;20450;-72
2022/02/08 16:23:35;;;;;;;1.63;0.90;;;;;;;;;;5128564;28;20449;-72
2022/02/08 16:26:14;;;;;;;1.27;0.90;;;;;;;;;;5128597;28;20443;-72
2022/02/08 16:29:02;;;;;;;2.80;1.43;;;;;;;;;;5128956;28;20556;-72
2022/02/08 16:31:56;;;;;;;4.83;0.80;;;;;;;;;;5128083;28;20475;-72
2022/02/08 16:53:46;;;;;;;2.00;0.73;;;;;;;;;;5128006;28;20430;-73
2022/02/08 16:56:22;;;;;;;3.30;1.00;;;;;;;;;;5126492;28;20438;-71
2022/02/08 16:58:55;;;;;;;2.20;1.20;;;;;;;;;;5127560;28;20490;-74
2022/02/08 17:01:26;;;;;;;2.57;0.73;;;;;;;;;;5126877;28;20442;-74
2022/02/08 17:03:54;;;;;;;4.90;1.30;;;;;;;;;;5128108;28;20470;-74
2022/02/08 17:06:22;;;;;;;3.10;1.20;;;;;;;;;;5127268;28;20516;-74
2022/02/08 17:08:55;;;;;;;3.23;1.20;;;;;;;;;;5123033;28;20539;-72
2022/02/08 17:11:31;;;;;;;3.03;1.53;;;;;;;;;;5113845;28;20440;-72
2022/02/08 17:14:20;;;;;;;3.87;1.07;;;;;;;;;;5114101;28;20455;-73
2022/02/08 17:17:23;;;;;;;1.47;0.87;;;;;;;;;;5114141;28;20454;-74
2022/02/08 17:34:28;;;;;;;2.80;1.03;;;;;;;;;;5113685;28;20442;-72
2022/02/08 17:47:42;;;;;;;5.80;2.67;;;;;;;;;;5092847;28;20435;-74
2022/02/08 17:50:10;;;;;;;6.10;2.47;;;;;;;;;;5099558;28;20448;-74
2022/02/08 17:52:40;;;;;;;5.43;1.83;;;;;;;;;;5113521;28;20522;-74
2022/02/08 17:55:07;;;;;;;3.70;2.00;;;;;;;;;;5112665;28;20450;-72
2022/02/08 17:57:35;;;;;;;7.83;2.60;;;;;;;;;;5112358;28;20494;-72
2022/02/08 18:00:02;;;;;;;5.13;2.73;;;;;;;;;;5113157;28;20530;-74
2022/02/08 18:02:29;;;;;;;8.07;3.03;;;;;;;;;;5112680;28;20447;-74
2022/02/08 18:04:59;;;;;;;6.73;2.83;;;;;;;;;;5112447;28;20454;-74
2022/02/08 18:07:27;;;;;;;7.20;3.07;;;;;;;;;;5112242;28;20455;-75
2022/02/08 18:09:56;;;;;;;5.97;1.93;;;;;;;;;;5113055;28;20451;-74
2022/02/08 18:12:25;;;;;;;6.03;2.30;;;;;;;;;;5111609;28;20539;-74
2022/02/08 18:14:56;;;;;;;4.07;2.10;;;;;;;;;;5113351;28;20475;-74
2022/02/08 18:17:27;;;;;;;6.10;2.27;;;;;;;;;;5112406;28;20468;-74
2022/02/08 18:20:02;;;;;;;2.50;1.97;;;;;;;;;;5112310;28;20473;-74
2022/02/08 18:22:37;;;;;;;4.77;1.67;;;;;;;;;;5112015;28;20484;-74
2022/02/08 18:51:28;;;;;;;2.77;1.60;;;;;;;;;;5112065;28;21010;-75
2022/02/08 18:56:44;;;;;;;4.40;1.90;;;;;;;;;;5111120;28;20802;-71
2022/02/08 19:08:04;;;;;;;6.17;2.20;;;;;;;;;;5108447;27;20720;-74
2022/02/08 19:16:19;;;;;;;3.03;1.93;;;;;;;;;;5061501;28;20543;-74
2022/02/08 19:19:02;;;;;;;6.40;2.90;;;;;;;;;;5088619;28;20661;-74
2022/02/08 19:21:42;;;;;;;2.23;2.03;;;;;;;;;;5088049;28;20436;-74
2022/02/08 19:24:10;;;;;;;4.47;1.90;;;;;;;;;;5060160;28;20440;-73
2022/02/08 19:26:37;;;;;;;2.30;1.50;;;;;;;;;;5087604;28;20844;-74
2022/02/08 19:29:05;;;;;;;2.90;1.60;;;;;;;;;;5087779;28;20813;-71
2022/02/08 19:31:32;;;;;;;4.83;1.40;;;;;;;;;;5087359;28;20523;-75
2022/02/08 19:34:01;;;;;;;1.40;1.10;;;;;;;;;;5087403;28;20455;-74
2022/02/08 19:36:28;;;;;;;2.73;1.27;;;;;;;;;;5072976;28;20461;-74
2022/02/08 19:38:58;;;;;;;2.93;1.37;;;;;;;;;;5087513;28;20452;-74
2022/02/08 19:41:26;;;;;;;3.77;2.00;;;;;;;;;;5086407;28;20536;-74
2022/02/08 19:43:53;;;;;;;4.80;1.50;;;;;;;;;;5087206;28;20487;-74
2022/02/08 19:46:20;;;;;;;3.57;1.70;;;;;;;;;;5086253;28;20484;-75
2022/02/08 19:48:48;;;;;;;3.23;2.10;;;;;;;;;;5075056;28;20548;-74
2022/02/08 19:51:15;;;;;;;1.60;1.30;;;;;;;;;;5078843;28;20473;-73
2022/02/08 19:53:44;;;;;;;3.40;2.17;;;;;;;;;;5077947;28;20585;-73
2022/02/08 19:56:23;;;;;;;8.23;2.90;;;;;;;;;;5070216;28;20468;-73
2022/02/08 19:58:55;;;;;;;2.20;1.80;;;;;;;;;;5079866;28;20512;-74
2022/02/08 20:01:26;;;;;;;8.30;2.37;;;;;;;;;;5086244;28;20528;-74
2022/02/08 20:03:58;;;;;;;5.00;2.20;;;;;;;;;;5084240;28;20457;-74
2022/02/08 20:06:26;;;;;;;8.33;2.20;;;;;;;;;;5069091;28;20508;-74
2022/02/08 20:08:53;;;;;;;6.67;2.00;;;;;;;;;;5072051;28;20940;-74
2022/02/08 20:11:21;;;;;;;3.80;2.00;;;;;;;;;;5065064;28;20533;-74
2022/02/08 20:13:57;;;;;;;7.23;2.80;;;;;;;;;;5070818;28;20942;-71
2022/02/08 20:16:27;;;;;;;5.43;2.63;;;;;;;;;;5064087;28;20454;-74
2022/02/08 20:18:57;;;;;;;6.37;3.90;;;;;;;;;;5052474;28;20450;-72
2022/02/08 20:21:26;;;;;;;4.47;2.50;;;;;;;;;;5053997;28;21174;-72
2022/02/08 20:23:54;;;;;;;7.50;2.60;;;;;;;;;;5053982;28;20524;-74
2022/02/08 20:26:27;;;;;;;5.43;2.70;;;;;;;;;;5068504;28;20489;-69
2022/02/08 20:28:56;;;;;;;6.10;2.50;;;;;;;;;;5057950;28;20454;-72
2022/02/08 20:31:23;;;;;;;6.00;2.50;;;;;;;;;;5065718;28;21313;-72
2022/02/08 20:33:52;;;;;;;3.43;2.80;;;;;;;;;;5055524;28;20539;-72
2022/02/08 20:36:20;;;;;;;6.87;3.20;;;;;;;;;;5046160;28;20956;-72
2022/02/08 20:38:48;;;;;;;8.90;3.27;;;;;;;;;;5064454;28;20479;-71
2022/02/08 20:41:16;;;;;;;4.90;2.70;;;;;;;;;;5056017;28;20953;-72
2022/02/08 20:43:43;;;;;;;5.80;3.07;;;;;;;;;;5070406;28;20499;-72
2022/02/08 20:46:10;;;;;;;5.97;2.40;;;;;;;;;;5058462;28;20456;-71
2022/02/08 20:48:38;;;;;;;7.40;3.20;;;;;;;;;;5060327;28;20446;-72
2022/02/08 20:51:08;;;;;;;5.87;2.57;;;;;;;;;;5059633;28;20484;-72